Terminal Aerodrome Forecast
Issued by NWS Bismarck, ND

Home | Current Version | Previous Version | Text Only | Print | Product List | Glossary Off
Versions: 1 2 3 4 5 6 7 8 9 10 11 12 13 14 15 16 17 18

000
FTUS43 KBIS 241700
TAFBIS
TAF
KBIS 241734Z 2418/2518 16006KT P6SM BKN080 OVC110
     FM242100 21009KT P6SM OVC060
     FM250100 25006KT P6SM BKN020 OVC040
     FM250400 28005KT P6SM SCT070 OVC120
     FM250800 34004KT P6SM BKN020 OVC100=

USA.gov is the U.S. government's official web portal to all federal, state and local government web resources and services.